Time;durP1;ratioP1;P1;durP2;ratioP2;P2;SDS_P1;SDS_P2;PMS_P1;PMS_P2;Temp;Humidity;BMP_temperature;BMP_pressure;BME280_temperature;BME280_humidity;BME280_pressure;Samples;Min_cycle;Max_cycle;Signal;HPM_P1;HPM_P2
2022/03/10 00:01:49;;;;;;;;;;;;;;;7.10;76.03;99739.03;5011132;28;20395;-60
2022/03/10 00:04:15;;;;;;;;;;;;;;;6.80;83.29;99740.06;5015055;28;19913;-60
2022/03/10 00:06:40;;;;;;;;;;;;;;;6.07;84.78;99747.13;5009243;28;19914;-61
2022/03/10 00:09:06;;;;;;;;;;;;;;;6.54;84.68;99756.34;5010274;28;20043;-60
2022/03/10 00:11:31;;;;;;;;;;;;;;;7.10;79.73;99739.88;5008116;28;19921;-61
2022/03/10 00:13:56;;;;;;;;;;;;;;;6.86;80.50;99745.13;5005358;28;19914;-60
2022/03/10 00:16:22;;;;;;;;;;;;;;;7.09;80.10;99748.44;5008896;28;19913;-60
2022/03/10 00:18:47;;;;;;;;;;;;;;;7.18;79.21;99751.78;5018223;28;19924;-60
2022/03/10 00:21:13;;;;;;;;;;;;;;;6.51;85.04;99765.75;5010623;28;19914;-60
2022/03/10 00:35:57;;;;;;;;;;;;;;;6.24;86.29;99755.59;5012316;28;19924;-58
2022/03/10 00:38:23;;;;;;;;;;;;;;;7.11;85.08;99756.94;5011509;28;20004;-60
2022/03/10 00:56:23;;;;;;;;;;;;;;;6.94;85.94;99779.25;5010713;28;19925;-60
2022/03/10 01:05:25;;;;;;;;;;;;;;;6.37;85.39;99789.66;5011896;28;19918;-60
2022/03/10 01:35:54;;;;;;;;;;;;;;;5.70;86.28;99770.09;5009328;28;19940;-59
2022/03/10 02:36:43;;;;;;;;;;;;;;;5.72;87.70;99767.53;5006340;28;20056;-59
2022/03/10 02:39:09;;;;;;;;;;;;;;;5.86;88.71;99768.38;5022793;28;20260;-60
2022/03/10 02:41:34;;;;;;;;;;;;;;;5.87;86.87;99768.38;5008277;28;19984;-60
2022/03/10 02:47:11;;;;;;;;;;;;;;;5.66;89.96;99765.84;5003600;28;19923;-60
2022/03/10 02:55:53;;;;;;;;;;;;;;;5.70;89.17;99757.31;5007782;28;19928;-60
2022/03/10 03:26:10;;;;;;;;;;;;;;;5.70;91.88;99741.13;5008771;28;20399;-59
2022/03/10 03:36:49;;;;;;;;;;;;;;;4.96;92.54;99736.81;1485139;26;19929;-60
2022/03/10 03:39:14;;;;;;;;;;;;;;;4.66;92.37;99731.63;5023626;28;19975;-61
2022/03/10 03:41:41;;;;;;;;;;;;;;;5.29;92.98;99727.53;5007204;28;19971;-61
2022/03/10 03:44:07;;;;;;;;;;;;;;;5.14;90.13;99722.38;4994015;28;19917;-60
2022/03/10 03:46:32;;;;;;;;;;;;;;;5.33;91.14;99728.34;5003176;28;19914;-61
2022/03/10 03:48:58;;;;;;;;;;;;;;;5.56;87.80;99723.25;5007110;28;19979;-59
2022/03/10 03:51:23;;;;;;;;;;;;;;;5.49;89.37;99730.06;4966235;28;19918;-60
2022/03/10 03:56:52;;;;;;;;;;;;;;;6.10;85.11;99736.88;5005800;28;19924;-61
2022/03/10 03:59:17;;;;;;;;;;;;;;;5.74;83.58;99730.06;5003975;28;20016;-61
2022/03/10 04:10:54;;;;;;;;;;;;;;;5.14;91.49;99742.81;5005088;28;20371;-61
2022/03/10 04:16:27;;;;;;;;;;;;;;;5.70;86.76;99748.81;5005736;28;19924;-61
2022/03/10 04:19:25;;;;;;;;;;;;;;;5.57;86.66;99745.41;5006717;28;19913;-60
2022/03/10 04:22:08;;;;;;;;;;;;;;;5.66;85.01;99745.41;5005733;28;19917;-61
2022/03/10 04:30:58;;;;;;;;;;;;;;;5.82;85.60;99731.78;5004501;28;19963;-60
2022/03/10 04:56:23;;;;;;;;;;;;;;;6.33;80.20;99743.63;5017590;28;20041;-61
2022/03/10 04:58:48;;;;;;;;;;;;;;;6.10;81.11;99757.31;5022207;28;19921;-60
2022/03/10 05:01:14;;;;;;;;;;;;;;;5.07;85.71;99762.38;5006258;28;19917;-58
2022/03/10 05:25:31;;;;;;;;;;;;;;;4.46;94.65;99785.94;5024435;28;19954;-60
2022/03/10 05:39:56;;;;;;;;;;;;;;;3.61;100.00;99787.03;5021815;28;19920;-59
2022/03/10 05:42:22;;;;;;;;;;;;;;;3.64;100.00;99781.97;5020451;28;19917;-60
2022/03/10 05:57:03;;;;;;;;;;;;;;;5.87;86.13;99775.22;5020888;28;19917;-61
2022/03/10 06:45:27;;;;;;;;;;;;;;;5.22;90.90;99805.81;5021691;28;19944;-60
2022/03/10 07:15:38;;;;;;;;;;;;;;;6.66;88.67;99824.56;5021822;28;19921;-59
2022/03/10 07:36:42;;;;;;;;;;;;;;;8.79;78.14;99829.94;5027439;28;19917;-61
2022/03/10 07:45:28;;;;;;;;;;;;;;;9.34;73.70;99823.25;5025616;28;19971;-61
2022/03/10 07:57:08;;;;;;;;;;;;;;;10.29;62.96;99820.94;5033433;28;19953;-61
2022/03/10 08:15:30;;;;;;;;;;;;;;;10.85;52.86;99822.44;5023736;28;19966;-61
2022/03/10 08:17:56;;;;;;;;;;;;;;;10.87;51.23;99812.09;5020875;28;20317;-60
2022/03/10 08:29:41;;;;;;;;;;;;;;;11.66;52.13;99806.94;5036900;28;19943;-60
2022/03/10 08:35:28;;;;;;;;;;;;;;;11.91;51.38;99807.22;5028420;28;19924;-61
2022/03/10 08:59:30;;;;;;;;;;;;;;;12.73;43.62;99779.28;5035856;28;20375;-61
2022/03/10 09:05:28;;;;;;;;;;;;;;;13.39;42.92;99773.00;5034128;28;19920;-62
2022/03/10 09:08:01;;;;;;;;;;;;;;;13.13;44.24;99780.69;5027628;28;20397;-61
2022/03/10 09:10:26;;;;;;;;;;;;;;;12.70;43.99;99777.63;5033644;28;19932;-60
2022/03/10 09:12:52;;;;;;;;;;;;;;;12.99;42.36;99773.31;5033325;28;20387;-61
2022/03/10 09:15:37;;;;;;;;;;;;;;;13.08;43.26;99778.22;5036444;28;19917;-62
2022/03/10 09:27:40;;;;;;;;;;;;;;;13.32;42.44;99768.91;5030712;28;19968;-61
2022/03/10 09:30:08;;;;;;;;;;;;;;;13.43;42.10;99762.56;5029617;28;19947;-62
2022/03/10 09:32:36;;;;;;;;;;;;;;;13.43;42.07;99759.97;5034245;28;19913;-61
2022/03/10 09:35:02;;;;;;;;;;;;;;;13.74;43.33;99762.44;5031611;28;19988;-61
2022/03/10 09:43:34;;;;;;;;;;;;;;;14.40;40.87;99755.00;5024022;28;19925;-61
2022/03/10 09:46:00;;;;;;;;;;;;;;;14.32;40.95;99772.53;5001507;28;19926;-61
2022/03/10 09:48:25;;;;;;;;;;;;;;;14.77;42.24;99761.47;5004067;28;19921;-62
2022/03/10 09:50:51;;;;;;;;;;;;;;;14.75;41.36;99764.09;5001931;28;20039;-62
2022/03/10 09:56:24;;;;;;;;;;;;;;;14.75;42.94;99763.25;5000180;28;19925;-62
2022/03/10 10:05:28;;;;;;;;;;;;;;;15.19;41.72;99760.72;5001652;28;19913;-61
2022/03/10 10:08:01;;;;;;;;;;;;;;;15.64;39.99;99762.41;5001666;28;19921;-62
2022/03/10 10:10:27;;;;;;;;;;;;;;;16.17;42.62;99766.31;5001436;28;19929;-62
2022/03/10 10:12:52;;;;;;;;;;;;;;;15.32;38.30;99748.97;4985228;28;20394;-62
2022/03/10 10:15:18;;;;;;;;;;;;;;;15.43;41.14;99759.75;5002648;28;19917;-61
2022/03/10 10:17:43;;;;;;;;;;;;;;;16.04;39.91;99753.00;5003428;28;19924;-62
2022/03/10 10:26:40;;;;;;;;;;;;;;;15.92;39.39;99748.31;5001122;28;19968;-60
2022/03/10 10:35:29;;;;;;;;;;;;;;;16.18;36.81;99735.06;5017217;28;19955;-61
2022/03/10 10:37:56;;;;;;;;;;;;;;;16.57;36.84;99731.63;5018615;28;20382;-61
2022/03/10 10:40:27;;;;;;;;;;;;;;;16.69;35.69;99720.69;5018948;28;19924;-61
2022/03/10 10:42:53;;;;;;;;;;;;;;;16.26;37.89;99735.59;5003409;28;19924;-62
2022/03/10 10:45:30;;;;;;;;;;;;;;;16.48;36.48;99726.81;5002279;28;19913;-61
2022/03/10 10:48:06;;;;;;;;;;;;;;;17.20;35.80;99714.91;5020506;28;20175;-62
2022/03/10 10:50:33;;;;;;;;;;;;;;;16.92;36.83;99713.56;5020078;28;19917;-62
2022/03/10 10:52:58;;;;;;;;;;;;;;;17.55;35.59;99714.00;5018997;28;19916;-62
2022/03/10 10:55:30;;;;;;;;;;;;;;;17.26;34.18;99706.78;5022693;28;19951;-62
2022/03/10 10:57:55;;;;;;;;;;;;;;;17.16;36.16;99719.41;5021935;28;19913;-61
2022/03/10 11:00:21;;;;;;;;;;;;;;;16.80;36.08;99712.38;5011740;28;19920;-60
2022/03/10 11:02:46;;;;;;;;;;;;;;;16.70;36.11;99722.34;5002099;28;19992;-62
2022/03/10 11:05:14;;;;;;;;;;;;;;;18.02;35.64;99707.38;5000865;28;19964;-60
2022/03/10 11:07:42;;;;;;;;;;;;;;;17.41;36.03;99703.44;5000450;28;19923;-62
2022/03/10 11:10:11;;;;;;;;;;;;;;;17.48;36.09;99704.81;5002290;28;19929;-62
2022/03/10 11:12:40;;;;;;;;;;;;;;;17.84;39.66;99716.97;5003769;28;19964;-60
2022/03/10 11:15:07;;;;;;;;;;;;;;;17.59;35.64;99695.63;5003245;28;20008;-61
2022/03/10 11:17:32;;;;;;;;;;;;;;;18.02;32.08;99689.13;5002434;28;20375;-61
2022/03/10 11:26:11;;;;;;;;;;;;;;;17.60;32.77;99686.91;5000054;28;19921;-61
2022/03/10 11:28:41;;;;;;;;;;;;;;;18.17;34.86;99692.69;4991351;28;19925;-58
2022/03/10 11:31:07;;;;;;;;;;;;;;;17.83;35.99;99694.41;5005948;28;19961;-62
2022/03/10 11:33:34;;;;;;;;;;;;;;;18.41;37.39;99692.34;4989888;28;19914;-61
2022/03/10 11:35:59;;;;;;;;;;;;;;;17.94;33.67;99694.72;5004687;28;19928;-62
2022/03/10 11:38:48;;;;;;;;;;;;;;;18.45;34.27;99692.09;5002349;28;19917;-62
2022/03/10 11:41:14;;;;;;;;;;;;;;;18.72;35.87;99689.72;5004870;28;19917;-61
2022/03/10 11:43:39;;;;;;;;;;;;;;;18.46;33.78;99682.50;4981036;28;20268;-62
2022/03/10 11:46:17;;;;;;;;;;;;;;;17.87;33.62;99676.88;5003782;28;20020;-62
2022/03/10 11:48:43;;;;;;;;;;;;;;;18.46;35.06;99685.09;4991720;28;19922;-61
2022/03/10 11:51:12;;;;;;;;;;;;;;;18.39;33.87;99675.00;5004671;28;20445;-62
2022/03/10 11:53:53;;;;;;;;;;;;;;;18.04;33.26;99678.59;5004953;28;19924;-61
2022/03/10 11:56:23;;;;;;;;;;;;;;;17.60;35.12;99676.47;5003386;28;19913;-62
2022/03/10 11:58:49;;;;;;;;;;;;;;;17.56;34.72;99673.16;4991219;28;19922;-62
2022/03/10 12:01:18;;;;;;;;;;;;;;;18.67;34.13;99676.09;5001606;28;20922;-62
2022/03/10 12:03:44;;;;;;;;;;;;;;;18.42;34.24;99667.94;5004669;28;19913;-62
2022/03/10 12:06:13;;;;;;;;;;;;;;;19.13;31.77;99657.91;5006397;28;19925;-62
2022/03/10 12:08:40;;;;;;;;;;;;;;;19.22;33.97;99673.03;5005116;28;19917;-61
2022/03/10 12:11:15;;;;;;;;;;;;;;;18.68;34.13;99666.50;5005999;28;19921;-62
2022/03/10 12:13:44;;;;;;;;;;;;;;;18.71;34.91;99667.19;5004769;28;19921;-61
2022/03/10 12:16:32;;;;;;;;;;;;;;;18.31;32.51;99651.06;5005266;28;19913;-60
2022/03/10 12:18:59;;;;;;;;;;;;;;;18.26;34.61;99649.66;5000586;28;19917;-62
2022/03/10 12:21:28;;;;;;;;;;;;;;;17.73;34.33;99657.53;5002879;28;20279;-62
2022/03/10 12:23:54;;;;;;;;;;;;;;;18.43;33.68;99646.13;5001260;28;19963;-61
2022/03/10 12:26:33;;;;;;;;;;;;;;;18.22;35.98;99659.38;5003995;28;19922;-62
2022/03/10 12:29:09;;;;;;;;;;;;;;;17.77;33.34;99648.66;5002678;28;20358;-62
2022/03/10 12:31:35;;;;;;;;;;;;;;;18.93;35.10;99647.75;4990233;28;20383;-61
2022/03/10 12:34:00;;;;;;;;;;;;;;;18.26;36.18;99650.47;4990827;28;19914;-62
2022/03/10 12:45:31;;;;;;;;;;;;;;;18.77;36.08;99635.56;5000519;28;20008;-61
2022/03/10 12:48:21;;;;;;;;;;;;;;;19.03;34.62;99635.88;5004629;28;19925;-61
2022/03/10 12:50:47;;;;;;;;;;;;;;;18.56;34.25;99628.88;5024862;28;20404;-62
2022/03/10 12:53:34;;;;;;;;;;;;;;;18.41;32.13;99611.50;5023211;28;20024;-62
2022/03/10 13:05:29;;;;;;;;;;;;;;;19.72;32.57;99605.75;5019204;28;20342;-62
2022/03/10 13:17:03;;;;;;;;;;;;;;;20.63;36.71;99606.22;5021388;28;19960;-61
2022/03/10 13:19:29;;;;;;;;;;;;;;;20.64;35.82;99607.06;5021362;28;19948;-61
2022/03/10 13:22:02;;;;;;;;;;;;;;;20.71;32.94;99594.44;5006731;28;19967;-61
2022/03/10 13:42:51;;;;;;;;;;;;;;;19.61;36.46;99580.25;5021787;28;19917;-61
2022/03/10 13:45:16;;;;;;;;;;;;;;;19.20;35.74;99578.31;5022790;28;20023;-62
2022/03/10 13:50:55;;;;;;;;;;;;;;;19.43;31.85;99563.03;5018480;28;19931;-57
2022/03/10 13:56:34;;;;;;;;;;;;;;;19.89;38.62;99570.75;5018100;28;20424;-62
2022/03/10 14:02:29;;;;;;;;;;;;;;;19.18;38.52;99564.50;5017827;28;19963;-62
2022/03/10 14:04:55;;;;;;;;;;;;;;;19.18;33.22;99561.91;5018673;28;19921;-62
2022/03/10 14:07:43;;;;;;;;;;;;;;;19.25;33.57;99553.69;5022762;28;19924;-61
2022/03/10 14:16:17;;;;;;;;;;;;;;;18.25;33.21;99554.97;5018823;28;20469;-62
2022/03/10 14:18:47;;;;;;;;;;;;;;;19.03;36.16;99565.38;5019127;28;19917;-62
2022/03/10 14:21:12;;;;;;;;;;;;;;;18.58;33.42;99554.00;5020158;28;19917;-61
2022/03/10 14:23:38;;;;;;;;;;;;;;;18.19;34.23;99544.84;5019329;28;19921;-62
2022/03/10 14:26:10;;;;;;;;;;;;;;;18.92;35.69;99554.72;5021431;28;19917;-62
2022/03/10 14:37:59;;;;;;;;;;;;;;;18.46;37.81;99546.88;5022357;28;19917;-61
2022/03/10 14:40:24;;;;;;;;;;;;;;;18.46;39.77;99547.72;5019964;28;19917;-61
2022/03/10 14:42:49;;;;;;;;;;;;;;;18.53;37.21;99537.78;5020053;28;19928;-61
2022/03/10 14:45:15;;;;;;;;;;;;;;;18.04;32.24;99520.47;5003746;28;19913;-60
2022/03/10 14:56:54;;;;;;;;;;;;;;;17.78;36.45;99529.66;5018713;28;19924;-61
2022/03/10 14:59:20;;;;;;;;;;;;;;;18.01;37.58;99530.22;5021332;28;19914;-60
2022/03/10 15:01:46;;;;;;;;;;;;;;;18.09;38.07;99528.88;5002654;28;20323;-60
2022/03/10 15:07:14;;;;;;;;;;;;;;;17.68;35.92;99520.66;5018443;28;19967;-61
2022/03/10 15:09:51;;;;;;;;;;;;;;;17.69;36.62;99519.72;5019116;28;19925;-62
2022/03/10 15:12:17;;;;;;;;;;;;;;;17.78;39.62;99530.47;5020043;28;20308;-60
2022/03/10 15:15:15;;;;;;;;;;;;;;;17.58;36.23;99511.63;5018643;28;19920;-61
2022/03/10 15:17:51;;;;;;;;;;;;;;;16.84;37.14;99510.19;5019858;28;19916;-61
2022/03/10 15:26:39;;;;;;;;;;;;;;;16.84;37.17;99505.84;5017928;28;20082;-59
2022/03/10 15:35:30;;;;;;;;;;;;;;;16.79;35.79;99496.56;5017524;28;19921;-60
2022/03/10 15:47:12;;;;;;;;;;;;;;;16.85;38.55;99502.28;5018561;28;20858;-60
2022/03/10 15:55:47;;;;;;;;;;;;;;;16.58;37.34;99499.28;5019704;28;19928;-60
2022/03/10 16:26:01;;;;;;;;;;;;;;;16.03;40.05;99481.97;5021108;28;19969;-60
2022/03/10 16:37:40;;;;;;;;;;;;;;;15.87;41.20;99487.03;5025113;28;19963;-60
2022/03/10 16:40:06;;;;;;;;;;;;;;;15.91;40.87;99487.72;5023022;28;19921;-60
2022/03/10 16:42:31;;;;;;;;;;;;;;;15.59;41.57;99481.38;5023204;28;19916;-61
2022/03/10 16:44:57;;;;;;;;;;;;;;;15.36;42.17;99488.41;5025461;28;19924;-61
2022/03/10 16:47:22;;;;;;;;;;;;;;;15.47;41.58;99487.94;5011495;28;19999;-59
2022/03/10 16:49:48;;;;;;;;;;;;;;;15.85;43.38;99494.06;5031140;28;20003;-61
2022/03/10 16:52:13;;;;;;;;;;;;;;;15.34;43.35;99490.22;5027462;28;20557;-61
2022/03/10 16:54:39;;;;;;;;;;;;;;;15.14;43.14;99492.84;5028197;28;19983;-61
2022/03/10 17:09:08;;;;;;;;;;;;;;;14.78;45.32;99499.53;5003497;28;19928;-61
2022/03/10 17:11:34;;;;;;;;;;;;;;;14.89;46.28;99501.66;5016826;28;20016;-61
2022/03/10 17:17:02;;;;;;;;;;;;;;;15.06;48.43;99501.81;5013462;28;20088;-61
2022/03/10 17:25:59;;;;;;;;;;;;;;;14.48;50.68;99506.75;5014558;28;19913;-60
2022/03/10 17:28:24;;;;;;;;;;;;;;;14.23;51.08;99502.56;4999256;28;20584;-61
2022/03/10 17:30:50;;;;;;;;;;;;;;;13.95;50.61;99512.28;5015658;28;19956;-61
2022/03/10 17:33:18;;;;;;;;;;;;;;;14.15;54.32;99506.34;5012655;28;20391;-59
2022/03/10 17:35:43;;;;;;;;;;;;;;;14.72;53.64;99497.19;5017179;28;19917;-60
2022/03/10 17:44:18;;;;;;;;;;;;;;;14.15;51.17;99509.75;5018047;28;19985;-60
2022/03/10 17:46:43;;;;;;;;;;;;;;;14.52;44.09;99503.13;5017081;28;19925;-59
2022/03/10 17:49:08;;;;;;;;;;;;;;;14.71;46.32;99494.63;5016103;28;19921;-58
2022/03/10 17:51:36;;;;;;;;;;;;;;;14.83;47.06;99497.59;5014616;28;19932;-59
2022/03/10 17:57:04;;;;;;;;;;;;;;;13.45;53.92;99507.19;5012821;28;20460;-59
2022/03/10 17:59:30;;;;;;;;;;;;;;;14.01;54.44;99504.28;5013455;28;19956;-60
2022/03/10 18:05:31;;;;;;;;;;;;;;;13.73;54.54;99500.13;5018080;28;20385;-60
2022/03/10 18:07:59;;;;;;;;;;;;;;;13.68;56.11;99508.97;5021693;28;19921;-60
2022/03/10 18:10:25;;;;;;;;;;;;;;;13.51;55.33;99502.66;5019679;28;20004;-61
2022/03/10 18:12:50;;;;;;;;;;;;;;;13.55;55.87;99501.66;5022639;28;20004;-61
2022/03/10 18:15:39;;;;;;;;;;;;;;;13.52;58.31;99498.31;5020973;28;19925;-61
2022/03/10 18:36:34;;;;;;;;;;;;;;;13.01;59.20;99488.88;5017269;28;20444;-61
2022/03/10 18:42:17;;;;;;;;;;;;;;;13.02;61.35;99483.63;5013501;28;19923;-61
2022/03/10 18:50:55;;;;;;;;;;;;;;;11.48;62.63;99478.06;5012965;28;19941;-60
2022/03/10 18:53:21;;;;;;;;;;;;;;;11.29;66.92;99482.06;5017877;28;19920;-60
2022/03/10 18:55:47;;;;;;;;;;;;;;;11.55;65.00;99467.59;5019125;28;19925;-60
2022/03/10 18:58:12;;;;;;;;;;;;;;;12.12;60.16;99459.03;5000684;28;20016;-61
2022/03/10 19:16:18;;;;;;;;;;;;;;;11.83;61.32;99462.44;5015959;28;19928;-61
2022/03/10 19:18:43;;;;;;;;;;;;;;;11.51;63.28;99461.66;5021625;28;19921;-60
2022/03/10 19:27:18;;;;;;;;;;;;;;;11.62;62.77;99456.19;5014389;28;19929;-61
2022/03/10 19:29:43;;;;;;;;;;;;;;;11.27;59.77;99458.88;5015744;28;19937;-60
2022/03/10 19:32:08;;;;;;;;;;;;;;;11.22;62.28;99457.31;5004758;28;20283;-61
2022/03/10 19:34:34;;;;;;;;;;;;;;;11.20;65.30;99457.34;5020042;28;19929;-61
2022/03/10 19:37:00;;;;;;;;;;;;;;;11.07;65.31;99453.41;5004349;28;19928;-61
2022/03/10 19:39:26;;;;;;;;;;;;;;;11.40;63.46;99443.06;5019485;28;19921;-61
2022/03/10 19:41:53;;;;;;;;;;;;;;;11.26;66.40;99441.69;5005946;28;19928;-61
2022/03/10 19:44:18;;;;;;;;;;;;;;;11.37;69.38;99445.72;5016556;28;19920;-61
2022/03/10 19:56:04;;;;;;;;;;;;;;;10.99;69.12;99438.16;5000091;28;19917;-61
2022/03/10 20:07:44;;;;;;;;;;;;;;;11.27;75.98;99437.41;5004473;28;20634;-60
2022/03/10 20:10:10;;;;;;;;;;;;;;;11.49;72.87;99437.63;5003723;28;20004;-61
2022/03/10 20:12:36;;;;;;;;;;;;;;;11.43;68.03;99432.69;5001390;28;20028;-61
2022/03/10 20:15:02;;;;;;;;;;;;;;;10.96;71.89;99434.81;5001951;28;19921;-61
2022/03/10 20:17:27;;;;;;;;;;;;;;;11.12;77.07;99435.25;5002014;28;19921;-61
2022/03/10 20:19:53;;;;;;;;;;;;;;;10.67;75.18;99432.13;5004105;28;19921;-60
2022/03/10 20:22:18;;;;;;;;;;;;;;;10.58;77.57;99431.50;4992656;28;19918;-63
2022/03/10 20:24:43;;;;;;;;;;;;;;;10.61;77.52;99428.84;4983761;28;20323;-61
2022/03/10 20:27:09;;;;;;;;;;;;;;;10.71;76.59;99424.31;5003526;28;19921;-61
2022/03/10 20:36:08;;;;;;;;;;;;;;;10.62;76.39;99417.66;4996238;28;19996;-61
2022/03/10 20:47:47;;;;;;;;;;;;;;;10.76;77.60;99420.72;5021384;28;20393;-60
2022/03/10 20:50:13;;;;;;;;;;;;;;;10.59;77.99;99417.75;5024946;28;19925;-61
2022/03/10 20:52:38;;;;;;;;;;;;;;;10.50;78.62;99423.13;5021940;28;20469;-60
2022/03/10 20:55:09;;;;;;;;;;;;;;;10.44;76.24;99414.66;5026252;28;20037;-60
2022/03/10 21:06:49;;;;;;;;;;;;;;;11.24;75.90;99401.38;5020012;28;20044;-61
2022/03/10 21:15:32;;;;;;;;;;;;;;;10.95;77.93;99395.31;5019087;28;19913;-61
2022/03/10 21:36:32;;;;;;;;;;;;;;;10.94;66.37;99370.44;5022456;28;19924;-61
2022/03/10 21:39:01;;;;;;;;;;;;;;;10.62;69.36;99381.59;5025769;28;19967;-61
2022/03/10 21:41:28;;;;;;;;;;;;;;;10.54;66.33;99378.41;5027877;28;19952;-61
2022/03/10 21:43:53;;;;;;;;;;;;;;;11.44;64.51;99372.44;5023362;28;19951;-61
2022/03/10 21:46:18;;;;;;;;;;;;;;;11.52;58.70;99368.75;5024643;28;19965;-60
2022/03/10 21:48:44;;;;;;;;;;;;;;;10.76;60.01;99376.06;5004622;28;19921;-61
2022/03/10 21:51:09;;;;;;;;;;;;;;;11.36;62.49;99369.25;5004726;28;20414;-58
2022/03/10 21:53:34;;;;;;;;;;;;;;;11.67;63.37;99374.34;5024170;28;19928;-61
2022/03/10 21:55:59;;;;;;;;;;;;;;;11.18;57.76;99368.91;5023174;28;20876;-61
2022/03/10 21:58:25;;;;;;;;;;;;;;;11.88;56.45;99365.13;5025769;28;19936;-61
2022/03/10 22:00:50;;;;;;;;;;;;;;;11.19;57.23;99373.16;5024694;28;19957;-61
2022/03/10 22:03:16;;;;;;;;;;;;;;;11.09;60.03;99369.16;5022806;28;19921;-60
2022/03/10 22:05:41;;;;;;;;;;;;;;;11.34;59.59;99365.91;5025898;28;20414;-60
2022/03/10 22:08:06;;;;;;;;;;;;;;;11.57;60.74;99367.78;5003090;28;19978;-60
2022/03/10 22:10:33;;;;;;;;;;;;;;;11.88;55.83;99368.56;5021689;28;20582;-60
2022/03/10 22:12:58;;;;;;;;;;;;;;;11.96;56.51;99362.31;5024354;28;20312;-60
2022/03/10 22:15:24;;;;;;;;;;;;;;;11.04;60.17;99366.72;5022176;28;19921;-61
2022/03/10 22:17:49;;;;;;;;;;;;;;;10.67;62.22;99372.00;5025173;28;20260;-61
2022/03/10 22:20:14;;;;;;;;;;;;;;;11.45;60.66;99362.09;5025042;28;20443;-61
2022/03/10 22:22:40;;;;;;;;;;;;;;;11.11;58.18;99359.66;5026713;28;19925;-61
2022/03/10 22:25:05;;;;;;;;;;;;;;;10.91;61.61;99367.94;5019405;28;19921;-61
2022/03/10 22:27:31;;;;;;;;;;;;;;;10.77;60.21;99363.16;5024676;28;19920;-60
2022/03/10 22:29:56;;;;;;;;;;;;;;;11.01;57.60;99361.63;5022566;28;20444;-59
2022/03/10 22:32:21;;;;;;;;;;;;;;;11.02;64.40;99368.50;5025050;28;20008;-60
2022/03/10 22:34:47;;;;;;;;;;;;;;;10.76;60.27;99358.88;5024159;28;19921;-61
2022/03/10 22:37:12;;;;;;;;;;;;;;;10.57;60.88;99365.44;5023449;28;19921;-61
2022/03/10 22:39:37;;;;;;;;;;;;;;;10.51;62.90;99368.16;5025814;28;19931;-61
2022/03/10 22:42:03;;;;;;;;;;;;;;;10.40;61.71;99361.56;5021700;28;19917;-60
2022/03/10 22:44:30;;;;;;;;;;;;;;;10.56;66.97;99366.28;5020670;28;19921;-60
2022/03/10 22:46:55;;;;;;;;;;;;;;;10.35;68.92;99365.13;5022980;28;19925;-60
2022/03/10 22:49:20;;;;;;;;;;;;;;;10.40;68.19;99356.41;5022686;28;20383;-60
2022/03/10 22:54:29;;;;;;;;;;;;;;;10.40;67.44;99345.25;5021321;28;19920;-60
2022/03/10 22:56:54;;;;;;;;;;;;;;;9.73;69.80;99352.84;5023298;28;19914;-61
2022/03/10 22:59:21;;;;;;;;;;;;;;;10.00;65.43;99339.34;5021131;28;19964;-60
2022/03/10 23:01:46;;;;;;;;;;;;;;;9.94;69.69;99343.78;5023316;28;19921;-60
2022/03/10 23:09:39;;;;;;;;;;;;;;;9.82;71.79;99332.06;5026027;28;20307;-61
2022/03/10 23:12:05;;;;;;;;;;;;;;;9.53;72.68;99335.31;5028345;28;19925;-61
2022/03/10 23:14:31;;;;;;;;;;;;;;;10.08;70.29;99320.28;5029096;28;20384;-61
2022/03/10 23:16:56;;;;;;;;;;;;;;;9.62;67.96;99315.38;5028657;28;19923;-60
2022/03/10 23:19:21;;;;;;;;;;;;;;;9.64;68.23;99321.31;5027033;28;19923;-61
2022/03/10 23:21:47;;;;;;;;;;;;;;;9.80;66.67;99318.38;5026473;28;19923;-61
2022/03/10 23:24:12;;;;;;;;;;;;;;;9.69;68.07;99321.22;5029014;28;20322;-61
2022/03/10 23:26:37;;;;;;;;;;;;;;;10.30;66.60;99312.91;5027111;28;19925;-60
2022/03/10 23:29:03;;;;;;;;;;;;;;;9.69;65.15;99321.22;5028414;28;19925;-60
2022/03/10 23:31:28;;;;;;;;;;;;;;;9.97;66.30;99318.00;5027112;28;19917;-61
2022/03/10 23:33:54;;;;;;;;;;;;;;;9.93;69.38;99318.97;5027552;28;20367;-60
2022/03/10 23:36:19;;;;;;;;;;;;;;;10.12;69.02;99316.75;5029910;28;19999;-61
2022/03/10 23:38:44;;;;;;;;;;;;;;;10.09;65.56;99322.00;5027715;28;19913;-61
2022/03/10 23:41:10;;;;;;;;;;;;;;;9.90;68.30;99322.44;5028301;28;19918;-57
2022/03/10 23:43:35;;;;;;;;;;;;;;;10.33;67.27;99324.00;5024115;28;19924;-60
2022/03/10 23:46:00;;;;;;;;;;;;;;;10.22;64.04;99320.81;5024908;28;19967;-60
2022/03/10 23:48:26;;;;;;;;;;;;;;;9.75;63.73;99327.94;5027186;28;20375;-60
2022/03/10 23:50:51;;;;;;;;;;;;;;;9.86;68.37;99331.13;5026965;28;20020;-61
2022/03/10 23:53:16;;;;;;;;;;;;;;;9.79;66.37;99327.84;5025669;28;20024;-60
2022/03/10 23:55:41;;;;;;;;;;;;;;;10.18;66.07;99326.91;5027043;28;19924;-60
2022/03/10 23:58:07;;;;;;;;;;;;;;;9.59;64.57;99330.88;5027566;28;19925;-61
